createdAt,value
2017-09-13T00:00:41.318Z,78.10
2017-09-13T00:03:08.773Z,78.10
2017-09-13T00:05:36.348Z,78.10
2017-09-13T00:08:03.829Z,77.80
2017-09-13T00:10:32.081Z,77.60
2017-09-13T00:12:59.546Z,77.50
2017-09-13T00:15:27.767Z,77.40
2017-09-13T00:17:55.742Z,77.50
2017-09-13T00:20:23.208Z,77.50
2017-09-13T00:22:50.695Z,77.70
2017-09-13T00:25:18.148Z,77.30
2017-09-13T00:27:46.386Z,76.80
2017-09-13T00:30:14.086Z,76.80
2017-09-13T00:32:41.555Z,77.00
2017-09-13T00:35:09.788Z,77.00
2017-09-13T00:37:37.260Z,77.00
2017-09-13T00:40:04.738Z,76.90
2017-09-13T00:42:32.962Z,77.00
2017-09-13T00:45:00.433Z,77.00
2017-09-13T00:47:27.910Z,77.80
2017-09-13T00:49:55.396Z,77.10
2017-09-13T00:52:22.888Z,77.40
2017-09-13T00:54:50.369Z,77.30
2017-09-13T00:57:17.945Z,77.30
2017-09-13T00:59:45.404Z,77.50
2017-09-13T01:02:12.877Z,77.40
2017-09-13T01:04:41.101Z,77.50
2017-09-13T01:07:08.581Z,77.50
2017-09-13T01:09:36.245Z,77.40
2017-09-13T01:12:03.707Z,77.10
2017-09-13T01:14:31.186Z,76.80
2017-09-13T01:16:59.434Z,76.70
2017-09-13T01:19:26.925Z,76.60
2017-09-13T01:21:55.161Z,76.70
2017-09-13T01:24:24.002Z,76.70
2017-09-13T01:26:51.482Z,76.90
2017-09-13T01:29:18.968Z,76.50
2017-09-13T01:31:46.428Z,76.30
2017-09-13T01:34:13.904Z,76.00
2017-09-13T01:36:42.148Z,75.70
2017-09-13T01:39:09.613Z,75.60
2017-09-13T01:41:37.620Z,75.40
2017-09-13T01:44:05.077Z,75.20
2017-09-13T01:46:32.599Z,75.10
2017-09-13T01:49:00.056Z,74.60
2017-09-13T01:51:27.545Z,74.40
2017-09-13T01:53:55.077Z,73.80
2017-09-13T01:56:22.537Z,73.40
2017-09-13T01:58:50.033Z,73.10
2017-09-13T02:01:17.530Z,73.10
2017-09-13T02:03:45.001Z,73.20
2017-09-13T02:06:12.502Z,73.40
2017-09-13T02:08:40.725Z,74.20
2017-09-13T02:11:08.197Z,73.50
2017-09-13T02:13:35.667Z,73.70
2017-09-13T02:16:03.913Z,73.40
2017-09-13T02:18:31.387Z,73.40
2017-09-13T02:20:58.861Z,74.00
2017-09-13T02:23:27.112Z,75.10
2017-09-13T02:25:54.864Z,74.50
2017-09-13T02:28:22.345Z,76.70
2017-09-13T02:30:49.915Z,77.70
2017-09-13T02:33:18.161Z,79.20
2017-09-13T02:35:45.654Z,79.80
2017-09-13T02:38:13.143Z,80.00
2017-09-13T02:40:40.608Z,80.70
2017-09-13T02:43:08.124Z,81.40
2017-09-13T02:45:35.607Z,82.20
2017-09-13T02:48:03.113Z,82.10
2017-09-13T02:50:31.355Z,84.40
2017-09-13T02:52:58.836Z,84.30
2017-09-13T02:55:26.319Z,84.60
2017-09-13T02:57:54.617Z,85.90
2017-09-13T03:00:22.098Z,85.70
2017-09-13T03:02:49.566Z,85.90
2017-09-13T03:05:17.047Z,86.30
2017-09-13T03:07:44.503Z,86.40
2017-09-13T03:10:12.034Z,87.20
2017-09-13T03:12:39.498Z,87.10
2017-09-13T03:15:06.977Z,86.60
2017-09-13T03:17:35.225Z,87.40
2017-09-13T03:20:02.795Z,87.30
2017-09-13T03:22:30.282Z,87.40
2017-09-13T03:24:58.506Z,86.00
2017-09-13T03:27:25.988Z,86.00
2017-09-13T03:29:53.458Z,85.40
2017-09-13T03:32:20.930Z,85.00
2017-09-13T03:34:49.297Z,85.50
2017-09-13T03:37:16.764Z,85.50
2017-09-13T03:39:44.996Z,84.10
2017-09-13T03:42:12.476Z,84.10
2017-09-13T03:44:39.955Z,84.50
2017-09-13T03:47:08.191Z,83.80
2017-09-13T03:49:35.669Z,83.70
2017-09-13T03:52:03.221Z,83.90
2017-09-13T03:54:30.810Z,83.20
2017-09-13T03:56:59.060Z,82.80
2017-09-13T03:59:27.289Z,82.40
2017-09-13T04:01:54.901Z,82.40
2017-09-13T04:04:23.125Z,82.00
2017-09-13T04:06:50.615Z,82.10
2017-09-13T04:09:18.085Z,81.90
2017-09-13T04:11:46.325Z,81.50
2017-09-13T04:14:13.817Z,81.50
2017-09-13T04:16:41.297Z,81.00
2017-09-13T04:19:09.522Z,82.20
2017-09-13T04:21:36.990Z,82.10
2017-09-13T04:24:04.462Z,82.30
2017-09-13T04:26:32.109Z,83.80
2017-09-13T04:28:59.614Z,83.00
2017-09-13T04:31:27.818Z,84.90
2017-09-13T04:33:55.298Z,84.30
2017-09-13T04:36:22.762Z,84.30
2017-09-13T04:38:50.261Z,84.00
2017-09-13T04:41:17.716Z,84.00
2017-09-13T04:43:45.202Z,83.80
2017-09-13T04:46:12.671Z,83.70
2017-09-13T04:48:40.137Z,83.40
2017-09-13T04:51:07.806Z,83.40
2017-09-13T04:53:35.278Z,83.30
2017-09-13T04:56:03.513Z,83.70
2017-09-13T04:58:30.990Z,83.70
2017-09-13T05:00:58.473Z,83.10
2017-09-13T05:03:26.705Z,83.20
2017-09-13T05:05:54.352Z,83.30
2017-09-13T05:08:21.857Z,82.70
2017-09-13T05:10:50.086Z,82.70
2017-09-13T05:13:17.579Z,82.20
2017-09-13T05:15:45.041Z,82.20
2017-09-13T05:18:13.294Z,81.70
2017-09-13T05:20:40.760Z,81.70
2017-09-13T05:23:08.229Z,81.10
2017-09-13T05:25:35.712Z,81.00
2017-09-13T05:28:03.955Z,81.90
2017-09-13T05:30:31.421Z,81.90
2017-09-13T05:32:58.888Z,82.50
2017-09-13T05:35:27.141Z,82.10
2017-09-13T05:37:54.605Z,82.10
2017-09-13T05:40:23.602Z,82.00
2017-09-13T05:42:51.833Z,81.10
2017-09-13T05:45:19.301Z,80.90
2017-09-13T05:47:46.786Z,81.50
2017-09-13T05:50:14.249Z,81.10
2017-09-13T05:52:41.727Z,80.60
2017-09-13T05:55:10.023Z,81.20
2017-09-13T05:57:37.871Z,81.20
2017-09-13T06:00:05.344Z,81.70
2017-09-13T06:02:32.997Z,82.70
2017-09-13T06:05:00.477Z,81.80
2017-09-13T06:07:27.964Z,82.30
2017-09-13T06:09:55.445Z,83.80
2017-09-13T06:12:23.672Z,86.50
2017-09-13T06:14:51.148Z,86.50
2017-09-13T06:17:18.618Z,87.30
2017-09-13T06:19:46.147Z,86.80
2017-09-13T06:22:13.634Z,85.30
2017-09-13T06:24:41.106Z,85.10
2017-09-13T06:27:09.355Z,84.70
2017-09-13T06:29:36.818Z,84.60
2017-09-13T06:32:04.482Z,84.60
2017-09-13T06:34:31.973Z,83.80
2017-09-13T06:37:00.219Z,83.40
2017-09-13T06:39:27.782Z,83.40
2017-09-13T06:41:56.748Z,82.60
2017-09-13T06:44:24.227Z,82.60
2017-09-13T06:46:53.224Z,82.60
2017-09-13T06:49:21.453Z,81.70
2017-09-13T06:51:48.938Z,81.70
2017-09-13T06:54:16.410Z,81.30
2017-09-13T06:56:45.382Z,81.90
2017-09-13T06:59:12.864Z,81.90
2017-09-13T07:01:41.094Z,80.20
2017-09-13T07:04:08.565Z,80.20
2017-09-13T07:06:36.045Z,79.30
2017-09-13T07:09:03.520Z,79.50
2017-09-13T07:11:31.766Z,77.90
2017-09-13T07:13:59.229Z,77.80
2017-09-13T07:16:26.704Z,77.90
2017-09-13T07:18:54.958Z,77.70
2017-09-13T07:21:22.448Z,77.70
2017-09-13T07:23:49.923Z,76.20
2017-09-13T07:26:17.405Z,75.70
2017-09-13T07:28:44.877Z,76.20
2017-09-13T07:31:12.355Z,73.90
2017-09-13T07:33:40.601Z,73.10
2017-09-13T07:36:08.074Z,72.90
2017-09-13T07:38:35.573Z,72.50
2017-09-13T07:41:03.055Z,71.60
2017-09-13T07:43:30.534Z,71.80
2017-09-13T07:45:58.036Z,69.80
2017-09-13T07:48:26.509Z,71.30
2017-09-13T07:50:54.775Z,69.90
2017-09-13T07:53:22.225Z,70.00
2017-09-13T07:55:49.710Z,70.50
2017-09-13T07:58:17.189Z,69.40
2017-09-13T08:00:44.677Z,70.20
2017-09-13T08:03:12.153Z,69.50
2017-09-13T08:05:39.630Z,70.40
2017-09-13T08:08:07.111Z,68.80
2017-09-13T08:10:34.587Z,69.20
2017-09-13T08:13:02.065Z,69.60
2017-09-13T08:15:29.601Z,70.30
2017-09-13T08:17:57.078Z,69.50
2017-09-13T08:20:24.550Z,70.80
2017-09-13T08:22:52.083Z,70.70
2017-09-13T08:25:19.565Z,69.70
2017-09-13T08:27:47.033Z,69.20
2017-09-13T08:30:15.271Z,69.60
2017-09-13T08:32:42.750Z,69.50
2017-09-13T08:35:10.214Z,66.40
2017-09-13T08:37:37.747Z,66.70
2017-09-13T08:40:05.295Z,65.40
2017-09-13T08:42:32.782Z,64.40
2017-09-13T08:45:01.757Z,64.40
2017-09-13T08:47:29.242Z,64.40
2017-09-13T08:49:57.473Z,63.60
2017-09-13T08:52:24.947Z,63.60
2017-09-13T08:54:52.480Z,62.90
2017-09-13T08:57:20.030Z,62.10
2017-09-13T08:59:47.522Z,63.20
2017-09-13T09:02:14.985Z,62.90
2017-09-13T09:04:43.780Z,62.20
2017-09-13T09:07:11.260Z,62.20
2017-09-13T09:09:39.511Z,64.50
2017-09-13T09:12:07.745Z,65.70
2017-09-13T09:14:35.212Z,65.70
2017-09-13T09:17:02.724Z,65.50
2017-09-13T09:19:30.942Z,63.50
2017-09-13T09:21:58.512Z,63.60
2017-09-13T09:24:26.015Z,63.50
2017-09-13T09:26:54.257Z,64.70
2017-09-13T09:29:21.731Z,64.70
2017-09-13T09:31:49.964Z,62.90
2017-09-13T09:34:17.451Z,62.80
2017-09-13T09:36:45.029Z,61.40
2017-09-13T09:39:13.258Z,60.20
2017-09-13T09:41:40.728Z,60.10
2017-09-13T09:44:08.829Z,60.40
2017-09-13T09:46:37.050Z,59.90
2017-09-13T09:49:04.554Z,59.90
2017-09-13T09:51:32.026Z,59.70
2017-09-13T09:54:00.277Z,59.90
2017-09-13T09:56:27.744Z,59.90
2017-09-13T09:58:55.227Z,60.20
2017-09-13T10:01:22.721Z,60.20
2017-09-13T10:03:50.194Z,61.40
2017-09-13T10:06:17.677Z,61.70
2017-09-13T10:08:46.037Z,61.20
2017-09-13T10:11:13.523Z,61.20
2017-09-13T10:13:41.837Z,60.90
2017-09-13T10:16:09.330Z,60.90
2017-09-13T10:18:38.401Z,60.60
2017-09-13T10:21:05.871Z,60.50
2017-09-13T10:23:33.363Z,60.10
2017-09-13T10:26:02.307Z,60.60
2017-09-13T10:28:29.984Z,60.50
2017-09-13T10:30:57.458Z,60.60
2017-09-13T10:33:24.935Z,60.20
2017-09-13T10:35:53.173Z,60.70
2017-09-13T10:38:20.663Z,60.60
2017-09-13T10:40:48.910Z,59.80
2017-09-13T10:43:17.154Z,60.30
2017-09-13T10:45:44.709Z,60.30
2017-09-13T10:48:12.177Z,59.70
2017-09-13T10:50:39.648Z,59.90
2017-09-13T10:53:07.837Z,58.30
2017-09-13T10:55:35.329Z,57.30
2017-09-13T10:58:03.570Z,57.80
2017-09-13T11:00:31.058Z,57.70
2017-09-13T11:02:59.284Z,57.00
2017-09-13T11:05:26.765Z,57.00
2017-09-13T11:07:54.233Z,58.20
2017-09-13T11:10:22.467Z,55.40
2017-09-13T11:12:49.971Z,55.40
2017-09-13T11:15:18.317Z,55.90
2017-09-13T11:17:46.571Z,56.40
2017-09-13T11:20:14.089Z,56.30
2017-09-13T11:22:41.563Z,54.30
2017-09-13T11:25:09.041Z,54.10
2017-09-13T11:27:36.608Z,55.30
2017-09-13T11:30:04.087Z,54.10
2017-09-13T11:32:32.344Z,53.90
2017-09-13T11:34:59.808Z,53.90
2017-09-13T11:37:28.050Z,54.00
2017-09-13T11:39:55.537Z,53.90
2017-09-13T11:42:23.023Z,54.00
2017-09-13T11:44:51.381Z,54.60
2017-09-13T11:47:18.848Z,54.60
2017-09-13T11:49:46.356Z,54.40
2017-09-13T11:52:13.844Z,55.00
2017-09-13T11:54:42.115Z,54.30
2017-09-13T11:57:09.590Z,54.30
2017-09-13T11:59:37.890Z,51.40
2017-09-13T12:02:06.182Z,51.60
2017-09-13T12:04:33.643Z,51.50
2017-09-13T12:07:01.147Z,53.40
2017-09-13T12:09:28.621Z,53.10
2017-09-13T12:11:56.263Z,51.60
2017-09-13T12:14:23.728Z,50.90
2017-09-13T12:16:51.966Z,50.30
2017-09-13T12:19:19.446Z,50.30
2017-09-13T12:21:46.932Z,50.70
2017-09-13T12:24:15.178Z,51.70
2017-09-13T12:26:42.693Z,51.70
2017-09-13T12:29:10.158Z,52.30
2017-09-13T12:31:37.664Z,53.50
2017-09-13T12:34:05.141Z,52.60
2017-09-13T12:36:33.383Z,53.90
2017-09-13T12:39:00.865Z,53.90
2017-09-13T12:41:29.122Z,57.20
2017-09-13T12:43:57.376Z,57.30
2017-09-13T12:46:24.875Z,57.30
2017-09-13T12:48:52.347Z,57.10
2017-09-13T12:51:20.585Z,58.50
2017-09-13T12:53:48.090Z,58.50
2017-09-13T12:56:15.565Z,58.50
2017-09-13T12:58:43.064Z,58.80
2017-09-13T13:01:11.297Z,59.00
2017-09-13T13:03:38.776Z,59.00
2017-09-13T13:06:06.257Z,59.10
2017-09-13T13:08:33.738Z,59.50
2017-09-13T13:11:02.079Z,59.50
2017-09-13T13:13:29.557Z,59.50
2017-09-13T13:15:57.823Z,57.50
2017-09-13T13:18:25.319Z,57.40
2017-09-13T13:20:53.560Z,57.80
2017-09-13T13:23:21.029Z,57.80
2017-09-13T13:25:49.296Z,58.60
2017-09-13T13:28:17.517Z,59.50
2017-09-13T13:30:45.001Z,59.50
2017-09-13T13:33:12.459Z,59.80
2017-09-13T13:35:39.987Z,60.90
2017-09-13T13:38:07.449Z,61.40
2017-09-13T13:40:34.935Z,61.70
2017-09-13T13:43:02.416Z,61.20
2017-09-13T13:45:30.678Z,62.70
2017-09-13T13:47:58.141Z,62.60
2017-09-13T13:50:26.379Z,63.10
2017-09-13T13:52:53.925Z,63.10
2017-09-13T13:55:27.418Z,64.30
2017-09-13T13:57:54.909Z,65.00
2017-09-13T14:00:22.577Z,65.00
2017-09-13T14:02:50.057Z,66.40
2017-09-13T14:05:18.289Z,67.60
2017-09-13T14:07:45.783Z,67.60
2017-09-13T14:10:14.751Z,69.00
2017-09-13T14:12:42.232Z,68.90
2017-09-13T14:15:09.753Z,69.30
2017-09-13T14:17:37.270Z,70.00
2017-09-13T14:20:05.521Z,71.60
2017-09-13T14:22:32.981Z,71.60
2017-09-13T14:25:01.213Z,70.60
2017-09-13T14:27:28.685Z,70.60
2017-09-13T14:29:56.272Z,70.00
2017-09-13T14:32:24.498Z,70.80
2017-09-13T14:34:51.976Z,70.10
2017-09-13T14:37:19.476Z,70.50
2017-09-13T14:39:47.706Z,69.70
2017-09-13T14:42:15.185Z,69.70
2017-09-13T14:44:42.649Z,68.20
2017-09-13T14:47:10.906Z,66.90
2017-09-13T14:49:39.175Z,65.40
2017-09-13T14:52:06.653Z,65.40
2017-09-13T14:54:34.169Z,64.20
2017-09-13T14:57:01.697Z,64.10
2017-09-13T14:59:29.170Z,63.10
2017-09-13T15:01:56.632Z,63.10
2017-09-13T15:04:24.126Z,63.10
2017-09-13T15:06:51.593Z,63.60
2017-09-13T15:09:20.573Z,62.50
2017-09-13T15:11:48.041Z,62.60
2017-09-13T15:14:16.286Z,62.90
2017-09-13T15:16:43.797Z,62.90
2017-09-13T15:19:12.049Z,64.10
2017-09-13T15:21:39.524Z,64.00
2017-09-13T15:24:07.761Z,64.60
2017-09-13T15:26:35.265Z,64.60
2017-09-13T15:29:03.568Z,65.60
2017-09-13T15:31:31.130Z,65.60
2017-09-13T15:33:58.626Z,66.00
2017-09-13T15:36:26.913Z,66.50
2017-09-13T15:38:55.905Z,65.50
2017-09-13T15:41:23.357Z,65.50
2017-09-13T15:43:50.844Z,66.20
2017-09-13T15:46:18.876Z,66.10
2017-09-13T15:48:46.345Z,66.00
2017-09-13T15:51:13.825Z,65.60
2017-09-13T15:53:41.343Z,66.00
2017-09-13T15:56:08.789Z,65.30
2017-09-13T15:58:36.267Z,65.70
2017-09-13T16:01:04.502Z,66.10
2017-09-13T16:03:31.979Z,66.20
2017-09-13T16:05:59.559Z,66.20
2017-09-13T16:08:27.022Z,65.80
2017-09-13T16:10:55.297Z,65.00
2017-09-13T16:13:22.752Z,65.00
2017-09-13T16:15:51.037Z,65.90
2017-09-13T16:18:19.278Z,66.30
2017-09-13T16:20:46.834Z,66.20
2017-09-13T16:23:14.318Z,65.90
2017-09-13T16:25:41.778Z,66.00
2017-09-13T16:28:10.173Z,65.70
2017-09-13T16:30:38.405Z,65.80
2017-09-13T16:33:05.890Z,65.80
2017-09-13T16:35:34.128Z,64.20
2017-09-13T16:38:01.694Z,64.10
2017-09-13T16:40:29.153Z,64.30
2017-09-13T16:42:56.638Z,64.00
2017-09-13T16:45:24.120Z,64.20
2017-09-13T16:47:51.577Z,64.20
2017-09-13T16:50:19.054Z,64.10
2017-09-13T16:52:46.749Z,64.20
2017-09-13T16:55:14.211Z,64.00
2017-09-13T16:57:42.450Z,64.40
2017-09-13T17:00:09.929Z,64.50
2017-09-13T17:02:37.398Z,64.10
2017-09-13T17:05:06.421Z,63.90
2017-09-13T17:07:33.910Z,63.90
2017-09-13T17:10:01.410Z,64.50
2017-09-13T17:12:28.894Z,64.30
2017-09-13T17:14:57.139Z,64.20
2017-09-13T17:17:24.601Z,64.20
2017-09-13T17:19:52.095Z,63.80
2017-09-13T17:22:19.570Z,64.30
2017-09-13T17:24:47.095Z,64.00
2017-09-13T17:27:15.339Z,64.30
2017-09-13T17:29:43.589Z,63.80
2017-09-13T17:32:11.061Z,63.80
2017-09-13T17:34:38.553Z,64.00
2017-09-13T17:37:06.810Z,63.90
2017-09-13T17:39:35.806Z,64.30
2017-09-13T17:42:04.156Z,64.30
2017-09-13T17:44:31.715Z,64.30
2017-09-13T17:46:59.200Z,64.30
2017-09-13T17:49:28.181Z,64.20
2017-09-13T17:51:56.435Z,64.40
2017-09-13T17:54:23.982Z,64.40
2017-09-13T17:56:51.473Z,64.20
2017-09-13T17:59:19.744Z,64.00
2017-09-13T18:01:47.221Z,64.10
2017-09-13T18:04:15.473Z,64.00
2017-09-13T18:06:43.037Z,64.00
2017-09-13T18:09:10.565Z,64.10
2017-09-13T18:11:38.165Z,64.10
2017-09-13T18:14:05.670Z,63.20
2017-09-13T18:16:33.140Z,62.70
2017-09-13T18:19:00.662Z,62.50
2017-09-13T18:21:28.913Z,62.50
2017-09-13T18:23:56.378Z,62.40
2017-09-13T18:26:24.643Z,63.10
2017-09-13T18:28:52.110Z,63.00
2017-09-13T18:31:20.369Z,64.60
2017-09-13T18:33:47.849Z,63.90
2017-09-13T18:36:16.102Z,63.90
2017-09-13T18:38:43.587Z,63.90
2017-09-13T18:41:11.827Z,64.00
2017-09-13T18:43:39.297Z,63.90
2017-09-13T18:46:06.782Z,64.60
2017-09-13T18:48:35.013Z,64.10
2017-09-13T18:51:02.493Z,64.10
2017-09-13T18:53:29.968Z,63.90
2017-09-13T18:55:58.207Z,63.10
2017-09-13T18:58:25.681Z,63.20
2017-09-13T19:00:53.621Z,63.50
2017-09-13T19:03:21.101Z,62.30
2017-09-13T19:05:48.586Z,62.80
2017-09-13T19:08:16.878Z,61.90
2017-09-13T19:10:44.327Z,61.90
2017-09-13T19:13:11.828Z,62.30
2017-09-13T19:15:39.295Z,62.10
2017-09-13T19:18:06.840Z,62.00
2017-09-13T19:20:34.344Z,62.40
2017-09-13T19:23:02.594Z,62.10
2017-09-13T19:25:30.824Z,62.60
2017-09-13T19:27:58.301Z,62.60
2017-09-13T19:30:25.770Z,62.80
2017-09-13T19:32:53.254Z,62.70
2017-09-13T19:35:21.553Z,62.90
2017-09-13T19:37:49.011Z,62.80
2017-09-13T19:40:16.519Z,63.30
2017-09-13T19:42:44.097Z,63.60
2017-09-13T19:45:12.353Z,63.80
2017-09-13T19:47:39.839Z,63.70
2017-09-13T19:50:08.095Z,64.20
2017-09-13T19:52:35.601Z,64.10
2017-09-13T19:55:03.091Z,64.70
2017-09-13T19:57:30.565Z,64.90
2017-09-13T19:59:58.061Z,64.90
2017-09-13T20:02:25.574Z,65.20
2017-09-13T20:04:53.040Z,65.40
2017-09-13T20:07:20.536Z,65.60
2017-09-13T20:09:48.062Z,65.90
2017-09-13T20:12:16.314Z,66.20
2017-09-13T20:14:43.905Z,66.20
2017-09-13T20:17:11.404Z,66.50
2017-09-13T20:19:38.906Z,66.50
2017-09-13T20:22:06.381Z,66.80
2017-09-13T20:24:35.135Z,67.10
2017-09-13T20:27:02.613Z,67.10
2017-09-13T20:29:30.852Z,67.90
2017-09-13T20:31:58.338Z,67.50
2017-09-13T20:34:25.813Z,67.70
2017-09-13T20:36:54.073Z,67.90
2017-09-13T20:39:21.545Z,67.80
2017-09-13T20:41:49.797Z,68.00
2017-09-13T20:44:18.798Z,68.10
2017-09-13T20:46:47.780Z,68.20
2017-09-13T20:49:15.253Z,68.20
2017-09-13T20:51:43.485Z,68.70
2017-09-13T20:54:11.154Z,68.60
2017-09-13T20:56:38.744Z,69.00
2017-09-13T20:59:07.013Z,69.50
2017-09-13T21:01:34.495Z,69.50
2017-09-13T21:04:02.749Z,70.50
2017-09-13T21:06:30.225Z,70.40
2017-09-13T21:08:58.465Z,72.20
2017-09-13T21:11:25.941Z,72.30
2017-09-13T21:13:53.402Z,73.10
2017-09-13T21:16:21.665Z,74.30
2017-09-13T21:18:50.005Z,74.60
2017-09-13T21:21:17.491Z,74.70
2017-09-13T21:23:45.009Z,75.00
2017-09-13T21:26:12.509Z,75.30
2017-09-13T21:28:39.996Z,75.60
2017-09-13T21:31:08.239Z,76.30
2017-09-13T21:33:35.829Z,76.20
2017-09-13T21:36:04.575Z,76.60
2017-09-13T21:38:32.103Z,76.60
2017-09-13T21:40:59.586Z,76.60
2017-09-13T21:43:27.061Z,76.90
2017-09-13T21:45:55.471Z,76.50
2017-09-13T21:48:23.818Z,76.00
2017-09-13T21:50:51.296Z,76.00
2017-09-13T21:53:19.517Z,76.70
2017-09-13T21:55:46.998Z,76.70
2017-09-13T21:58:14.474Z,76.20
2017-09-13T22:00:42.708Z,76.20
2017-09-13T22:03:10.233Z,75.30
2017-09-13T22:05:37.699Z,75.00
2017-09-13T22:08:05.195Z,75.00
2017-09-13T22:10:32.769Z,75.00
2017-09-13T22:13:00.237Z,75.00
2017-09-13T22:15:28.489Z,75.00
2017-09-13T22:17:55.990Z,75.00
2017-09-13T22:20:23.493Z,75.00
2017-09-13T22:22:51.586Z,75.70
2017-09-13T22:25:19.061Z,74.90
2017-09-13T22:27:47.651Z,74.50
2017-09-13T22:30:15.906Z,74.50
2017-09-13T22:32:43.468Z,74.40
2017-09-13T22:35:10.950Z,74.10
2017-09-13T22:37:39.190Z,73.60
2017-09-13T22:40:07.428Z,73.70
2017-09-13T22:42:34.917Z,73.80
2017-09-13T22:45:02.395Z,74.10
2017-09-13T22:47:29.873Z,75.10
2017-09-13T22:49:58.111Z,76.50
2017-09-13T22:52:25.612Z,76.50
2017-09-13T22:54:53.083Z,76.70
2017-09-13T22:57:20.547Z,78.70
2017-09-13T22:59:48.024Z,79.20
2017-09-13T23:02:15.673Z,80.30
2017-09-13T23:04:43.165Z,80.80
2017-09-13T23:07:11.421Z,82.60
2017-09-13T23:09:38.875Z,82.30
2017-09-13T23:12:06.382Z,82.40
2017-09-13T23:14:33.849Z,84.30
2017-09-13T23:17:01.333Z,83.40
2017-09-13T23:19:28.802Z,83.00
2017-09-13T23:21:56.281Z,83.40
2017-09-13T23:24:23.756Z,83.70
2017-09-13T23:26:52.121Z,83.90
2017-09-13T23:29:19.586Z,83.90
2017-09-13T23:31:47.826Z,84.00
2017-09-13T23:34:15.295Z,83.90
2017-09-13T23:36:42.797Z,83.50
2017-09-13T23:39:11.228Z,83.50
2017-09-13T23:41:38.697Z,83.40
2017-09-13T23:44:07.028Z,83.20
2017-09-13T23:46:34.481Z,83.20
2017-09-13T23:49:01.968Z,83.00
2017-09-13T23:51:29.446Z,82.80
2017-09-13T23:53:58.430Z,82.30
2017-09-13T23:56:25.886Z,82.20
2017-09-13T23:58:54.150Z,81.60
